Time;durP1;ratioP1;P1;durP2;ratioP2;P2;SDS_P1;SDS_P2;PMS_P1;PMS_P2;Temp;Humidity;BMP_temperature;BMP_pressure;BME280_temperature;BME280_humidity;BME280_pressure;Samples;Min_cycle;Max_cycle;Signal;HPM_P1;HPM_P2
2022/03/14 00:00:47;;;;;;;;;;;5.70;99.90;;;;;;4996107;28;19917;-81
2022/03/14 00:03:14;;;;;;;;;;;5.60;99.90;;;;;;5015671;28;19909;-81
2022/03/14 00:05:40;;;;;;;;;;;5.70;99.90;;;;;;5035474;28;19913;-81
2022/03/14 00:08:05;;;;;;;;;;;5.60;99.90;;;;;;5035457;28;19916;-81
2022/03/14 00:10:32;;;;;;;;;;;5.60;99.90;;;;;;5035316;28;19909;-81
2022/03/14 00:12:58;;;;;;;;;;;5.50;99.90;;;;;;5035373;28;19940;-81
2022/03/14 00:15:33;;;;;;;;;;;5.60;99.90;;;;;;5035099;28;19949;-81
2022/03/14 00:18:01;;;;;;;;;;;5.70;99.90;;;;;;5033701;28;19914;-81
2022/03/14 00:20:27;;;;;;;;;;;5.80;99.90;;;;;;5007260;28;19956;-82
2022/03/14 00:22:52;;;;;;;;;;;5.80;99.90;;;;;;4995569;28;19914;-82
2022/03/14 00:25:18;;;;;;;;;;;5.70;99.90;;;;;;4995539;28;19937;-82
2022/03/14 00:27:43;;;;;;;;;;;5.70;99.90;;;;;;4995514;28;20321;-82
2022/03/14 00:30:11;;;;;;;;;;;5.70;99.90;;;;;;4995710;28;19910;-81
2022/03/14 00:32:37;;;;;;;;;;;5.70;99.90;;;;;;4995497;28;19976;-81
2022/03/14 00:35:03;;;;;;;;;;;5.70;99.90;;;;;;4995714;28;20361;-82
2022/03/14 00:37:29;;;;;;;;;;;5.70;99.90;;;;;;4995200;28;19910;-81
2022/03/14 00:39:55;;;;;;;;;;;5.70;99.90;;;;;;4999585;28;19921;-82
2022/03/14 00:42:22;;;;;;;;;;;5.80;99.90;;;;;;5026935;28;19909;-82
2022/03/14 00:44:51;;;;;;;;;;;5.80;99.90;;;;;;5014885;28;19920;-81
2022/03/14 00:47:17;;;;;;;;;;;5.80;99.90;;;;;;5014884;28;19932;-82
2022/03/14 00:49:43;;;;;;;;;;;5.80;99.90;;;;;;5014768;28;20287;-81
2022/03/14 00:52:08;;;;;;;;;;;5.70;99.90;;;;;;5014763;28;19909;-81
2022/03/14 00:54:34;;;;;;;;;;;5.70;99.90;;;;;;5014472;28;20379;-82
2022/03/14 00:57:00;;;;;;;;;;;5.80;99.90;;;;;;5001789;28;19921;-81
2022/03/14 00:59:27;;;;;;;;;;;5.70;99.90;;;;;;5025482;28;19910;-81
2022/03/14 01:01:53;;;;;;;;;;;5.70;99.90;;;;;;5014631;28;19960;-81
2022/03/14 01:04:19;;;;;;;;;;;5.70;99.90;;;;;;5013279;28;19936;-82
2022/03/14 01:06:44;;;;;;;;;;;5.70;99.90;;;;;;5013052;28;20365;-81
2022/03/14 01:09:11;;;;;;;;;;;5.70;99.90;;;;;;5025964;28;19917;-81
2022/03/14 01:11:39;;;;;;;;;;;5.70;99.90;;;;;;5014154;28;20000;-81
2022/03/14 01:14:05;;;;;;;;;;;5.80;99.90;;;;;;5014355;28;19910;-81
2022/03/14 01:16:31;;;;;;;;;;;5.80;99.90;;;;;;4994868;28;19916;-81
2022/03/14 01:18:57;;;;;;;;;;;5.80;99.90;;;;;;5002541;28;20000;-81
2022/03/14 01:21:24;;;;;;;;;;;5.90;99.90;;;;;;5034014;28;19995;-81
2022/03/14 01:23:50;;;;;;;;;;;5.80;99.90;;;;;;5033524;28;20369;-81
2022/03/14 01:26:15;;;;;;;;;;;5.90;99.90;;;;;;5034090;28;19917;-82
2022/03/14 01:28:41;;;;;;;;;;;5.90;99.90;;;;;;5033749;28;19916;-81
2022/03/14 01:31:07;;;;;;;;;;;5.90;99.90;;;;;;5034168;28;19913;-81
2022/03/14 01:33:32;;;;;;;;;;;6.10;99.90;;;;;;5027306;28;19910;-81
2022/03/14 01:35:58;;;;;;;;;;;6.00;99.90;;;;;;5011775;28;19956;-82
2022/03/14 01:38:24;;;;;;;;;;;6.10;99.90;;;;;;4994014;28;19960;-82
2022/03/14 01:40:49;;;;;;;;;;;6.10;99.90;;;;;;4994349;28;20353;-82
2022/03/14 01:43:16;;;;;;;;;;;6.20;99.90;;;;;;4993001;28;20448;-81
2022/03/14 01:45:44;;;;;;;;;;;6.20;99.90;;;;;;4994210;28;19924;-81
2022/03/14 01:48:12;;;;;;;;;;;6.20;99.90;;;;;;4994599;28;20420;-81
2022/03/14 01:50:38;;;;;;;;;;;6.30;99.90;;;;;;4993819;28;20412;-81
2022/03/14 01:53:03;;;;;;;;;;;6.10;99.90;;;;;;4993892;28;19949;-81
2022/03/14 01:55:29;;;;;;;;;;;6.20;99.90;;;;;;4993988;28;20389;-80
2022/03/14 01:57:56;;;;;;;;;;;6.30;99.90;;;;;;5017385;28;20373;-81
2022/03/14 02:00:21;;;;;;;;;;;6.20;99.90;;;;;;5018701;28;19920;-81
2022/03/14 02:02:48;;;;;;;;;;;6.40;99.90;;;;;;5006344;28;20004;-81
2022/03/14 02:05:15;;;;;;;;;;;6.40;99.90;;;;;;4994015;28;19917;-81
2022/03/14 02:07:41;;;;;;;;;;;6.30;99.90;;;;;;4993657;28;19910;-81
2022/03/14 02:10:07;;;;;;;;;;;6.40;99.90;;;;;;4994140;28;20064;-81
2022/03/14 02:12:33;;;;;;;;;;;6.40;99.90;;;;;;4994136;28;19910;-81
2022/03/14 02:14:58;;;;;;;;;;;6.40;99.90;;;;;;4993467;28;19932;-81
2022/03/14 02:17:24;;;;;;;;;;;6.40;99.90;;;;;;4993819;28;19910;-81
2022/03/14 02:19:51;;;;;;;;;;;6.60;99.90;;;;;;4993638;28;19909;-81
2022/03/14 02:22:17;;;;;;;;;;;6.50;99.90;;;;;;4993640;28;19914;-81
2022/03/14 02:24:43;;;;;;;;;;;6.60;99.90;;;;;;4993851;28;19964;-81
2022/03/14 02:27:12;;;;;;;;;;;6.60;99.90;;;;;;4993020;28;21680;-81
2022/03/14 02:29:39;;;;;;;;;;;6.60;99.90;;;;;;5004528;28;19999;-81
2022/03/14 02:32:05;;;;;;;;;;;6.60;99.90;;;;;;5031139;28;20306;-81
2022/03/14 02:34:31;;;;;;;;;;;6.70;99.90;;;;;;4999508;28;19949;-81
2022/03/14 02:36:57;;;;;;;;;;;6.80;99.90;;;;;;4993368;28;19910;-81
2022/03/14 02:39:24;;;;;;;;;;;6.80;99.90;;;;;;4993793;28;19913;-82
2022/03/14 02:41:50;;;;;;;;;;;6.80;99.90;;;;;;4993466;28;19910;-81
2022/03/14 02:44:15;;;;;;;;;;;6.90;99.90;;;;;;4993771;28;19947;-81
2022/03/14 02:46:41;;;;;;;;;;;6.80;99.90;;;;;;4992245;28;19916;-81
2022/03/14 02:49:07;;;;;;;;;;;6.90;99.90;;;;;;4995669;28;19925;-81
2022/03/14 02:51:38;;;;;;;;;;;6.90;99.90;;;;;;5012820;28;20001;-81
2022/03/14 02:54:04;;;;;;;;;;;7.00;99.90;;;;;;5013268;28;20289;-81
2022/03/14 02:56:30;;;;;;;;;;;6.90;99.90;;;;;;5031158;28;19925;-81
2022/03/14 02:58:56;;;;;;;;;;;7.00;99.90;;;;;;5033019;28;20353;-81
2022/03/14 03:01:21;;;;;;;;;;;7.00;99.90;;;;;;5032940;28;19909;-81
2022/03/14 03:03:47;;;;;;;;;;;7.00;99.90;;;;;;5031849;28;19917;-82
2022/03/14 03:06:13;;;;;;;;;;;7.10;99.90;;;;;;5032719;28;19913;-81
2022/03/14 03:08:43;;;;;;;;;;;7.10;99.90;;;;;;5009165;28;19910;-81
2022/03/14 03:11:12;;;;;;;;;;;7.20;99.90;;;;;;4993339;28;19910;-81
2022/03/14 03:13:41;;;;;;;;;;;7.10;99.90;;;;;;4993629;28;19910;-81
2022/03/14 03:16:07;;;;;;;;;;;7.10;99.90;;;;;;4993071;28;20336;-81
2022/03/14 03:18:34;;;;;;;;;;;7.10;99.90;;;;;;4993304;28;19921;-81
2022/03/14 03:20:59;;;;;;;;;;;7.20;99.90;;;;;;4992922;28;20017;-82
2022/03/14 03:23:25;;;;;;;;;;;7.20;99.90;;;;;;5006444;28;20356;-81
2022/03/14 03:25:50;;;;;;;;;;;7.20;99.90;;;;;;5012711;28;20329;-82
2022/03/14 03:28:16;;;;;;;;;;;7.20;99.90;;;;;;5015015;28;19910;-81
2022/03/14 03:30:41;;;;;;;;;;;7.20;99.90;;;;;;5016511;28;20000;-81
2022/03/14 03:33:07;;;;;;;;;;;7.30;99.90;;;;;;5014126;28;19932;-81
2022/03/14 03:35:32;;;;;;;;;;;7.20;99.90;;;;;;4996537;28;20384;-81
2022/03/14 03:37:59;;;;;;;;;;;7.30;99.90;;;;;;5007455;28;20016;-81
2022/03/14 03:40:25;;;;;;;;;;;7.40;99.90;;;;;;4999084;28;19914;-81
2022/03/14 03:42:50;;;;;;;;;;;7.40;99.90;;;;;;4996619;28;19910;-81
2022/03/14 03:45:18;;;;;;;;;;;7.30;99.90;;;;;;4996448;28;19936;-82
2022/03/14 03:47:43;;;;;;;;;;;7.50;99.90;;;;;;4996497;28;19983;-81
2022/03/14 03:50:09;;;;;;;;;;;7.40;99.90;;;;;;4996187;28;19909;-81
2022/03/14 03:52:35;;;;;;;;;;;7.60;99.90;;;;;;4996482;28;20383;-81
2022/03/14 03:55:00;;;;;;;;;;;7.50;99.90;;;;;;4996418;28;20000;-81
2022/03/14 03:57:26;;;;;;;;;;;7.60;99.90;;;;;;4996274;28;19957;-81
2022/03/14 03:59:51;;;;;;;;;;;7.70;99.90;;;;;;4998635;28;20281;-81
2022/03/14 04:02:19;;;;;;;;;;;7.60;99.90;;;;;;5015655;28;19909;-82
2022/03/14 04:04:47;;;;;;;;;;;7.60;99.90;;;;;;5021594;28;20377;-81
2022/03/14 04:07:13;;;;;;;;;;;7.60;99.90;;;;;;5015451;28;19916;-81
2022/03/14 04:09:39;;;;;;;;;;;7.60;99.90;;;;;;5015668;28;19909;-82
2022/03/14 04:12:05;;;;;;;;;;;7.60;99.90;;;;;;5015546;28;19959;-81
2022/03/14 04:14:30;;;;;;;;;;;7.70;99.90;;;;;;5015958;28;19964;-81
2022/03/14 04:16:58;;;;;;;;;;;7.80;99.90;;;;;;5015455;28;20008;-81
2022/03/14 04:19:23;;;;;;;;;;;7.70;99.90;;;;;;5004194;28;19913;-81
2022/03/14 04:21:52;;;;;;;;;;;7.70;99.90;;;;;;5023871;28;20007;-81
2022/03/14 04:24:18;;;;;;;;;;;7.70;99.90;;;;;;4998521;28;19917;-81
2022/03/14 04:26:45;;;;;;;;;;;7.70;99.90;;;;;;4995952;28;19914;-81
2022/03/14 04:29:10;;;;;;;;;;;7.80;99.90;;;;;;4995920;28;19910;-81
2022/03/14 04:31:36;;;;;;;;;;;7.80;99.90;;;;;;4994449;28;19960;-81
2022/03/14 04:34:02;;;;;;;;;;;7.80;99.90;;;;;;5004629;28;20000;-81
2022/03/14 04:36:27;;;;;;;;;;;7.80;99.90;;;;;;5015526;28;19917;-81
2022/03/14 04:38:53;;;;;;;;;;;7.90;99.90;;;;;;5015159;28;19914;-81
2022/03/14 04:41:19;;;;;;;;;;;7.80;99.90;;;;;;5016797;28;19917;-81
2022/03/14 04:43:44;;;;;;;;;;;7.90;99.90;;;;;;5034902;28;19916;-81
2022/03/14 04:46:10;;;;;;;;;;;7.80;99.90;;;;;;5034789;28;19952;-81
2022/03/14 04:48:35;;;;;;;;;;;7.80;99.90;;;;;;5034686;28;19931;-81
2022/03/14 04:51:01;;;;;;;;;;;7.80;99.90;;;;;;5035161;28;20536;-81
2022/03/14 04:53:26;;;;;;;;;;;7.80;99.90;;;;;;5034908;28;19913;-81
2022/03/14 04:55:52;;;;;;;;;;;7.70;99.90;;;;;;5033118;28;19921;-80
2022/03/14 04:58:17;;;;;;;;;;;7.80;99.90;;;;;;5034312;28;19909;-81
2022/03/14 05:00:43;;;;;;;;;;;7.90;99.90;;;;;;5034731;28;20004;-81
2022/03/14 05:03:09;;;;;;;;;;;7.90;99.90;;;;;;5034392;28;20337;-80
2022/03/14 05:05:35;;;;;;;;;;;7.90;99.90;;;;;;5034470;28;20420;-81
2022/03/14 05:08:00;;;;;;;;;;;7.90;99.90;;;;;;5034588;28;19909;-81
2022/03/14 05:10:26;;;;;;;;;;;7.90;99.90;;;;;;5034312;28;19909;-81
2022/03/14 05:12:52;;;;;;;;;;;8.00;99.90;;;;;;5034463;28;20430;-81
2022/03/14 05:15:17;;;;;;;;;;;7.90;99.90;;;;;;5025613;28;19921;-81
2022/03/14 05:17:43;;;;;;;;;;;7.80;99.90;;;;;;5014126;28;20277;-81
2022/03/14 05:20:09;;;;;;;;;;;7.90;99.90;;;;;;5014198;28;19910;-82
2022/03/14 05:22:45;;;;;;;;;;;7.90;99.90;;;;;;5014419;28;19910;-82
2022/03/14 05:25:11;;;;;;;;;;;7.90;99.90;;;;;;5013996;28;19983;-82
2022/03/14 05:27:37;;;;;;;;;;;7.90;99.90;;;;;;5014441;28;19953;-81
2022/03/14 05:30:03;;;;;;;;;;;8.00;99.90;;;;;;5014103;28;19917;-82
2022/03/14 05:32:29;;;;;;;;;;;8.00;99.90;;;;;;4996114;28;19917;-82
2022/03/14 05:34:54;;;;;;;;;;;8.20;99.90;;;;;;5003401;28;19952;-84
2022/03/14 05:37:20;;;;;;;;;;;8.20;99.90;;;;;;5029510;28;19967;-82
2022/03/14 05:39:46;;;;;;;;;;;8.20;99.90;;;;;;5032210;28;19909;-83
2022/03/14 05:42:12;;;;;;;;;;;8.30;99.90;;;;;;5032879;28;19909;-81
2022/03/14 05:44:38;;;;;;;;;;;8.40;99.90;;;;;;5033679;28;19979;-81
2022/03/14 05:47:03;;;;;;;;;;;8.30;99.90;;;;;;5033140;28;19913;-80
2022/03/14 05:49:29;;;;;;;;;;;8.40;99.90;;;;;;5033228;28;19909;-80
2022/03/14 05:51:54;;;;;;;;;;;8.40;99.90;;;;;;5033095;28;19909;-80
2022/03/14 05:54:20;;;;;;;;;;;8.40;99.90;;;;;;5032567;28;19997;-77
2022/03/14 05:56:46;;;;;;;;;;;8.40;99.90;;;;;;5020871;28;19928;-77
2022/03/14 05:59:12;;;;;;;;;;;8.30;99.90;;;;;;5028519;28;19948;-76
2022/03/14 06:01:38;;;;;;;;;;;8.40;99.90;;;;;;5032693;28;19952;-76
2022/03/14 06:04:04;;;;;;;;;;;8.40;99.90;;;;;;5031551;28;19966;-76
2022/03/14 06:06:29;;;;;;;;;;;8.30;99.90;;;;;;5030993;28;19909;-77
2022/03/14 06:08:55;;;;;;;;;;;8.50;99.90;;;;;;5014095;28;20589;-77
2022/03/14 06:11:20;;;;;;;;;;;8.50;99.90;;;;;;4998095;28;19910;-76
2022/03/14 06:13:46;;;;;;;;;;;8.50;99.90;;;;;;5010111;28;19953;-76
2022/03/14 06:16:13;;;;;;;;;;;8.50;99.90;;;;;;5005133;28;19913;-76
2022/03/14 06:18:38;;;;;;;;;;;8.50;99.90;;;;;;5004473;28;19909;-76
2022/03/14 06:21:04;;;;;;;;;;;8.50;99.90;;;;;;5013273;28;19960;-76
2022/03/14 06:23:29;;;;;;;;;;;8.60;99.90;;;;;;5012990;28;19915;-76
2022/03/14 06:25:56;;;;;;;;;;;8.50;99.90;;;;;;5008219;28;20005;-77
2022/03/14 06:28:22;;;;;;;;;;;8.60;99.90;;;;;;4993266;28;19967;-76
2022/03/14 06:30:48;;;;;;;;;;;8.50;99.90;;;;;;4996653;28;19921;-77
2022/03/14 06:33:13;;;;;;;;;;;8.60;99.90;;;;;;5012623;28;19928;-76
2022/03/14 06:35:40;;;;;;;;;;;8.50;99.90;;;;;;5003875;28;19921;-78
2022/03/14 06:38:06;;;;;;;;;;;8.60;99.90;;;;;;5016017;28;20333;-76
2022/03/14 06:40:32;;;;;;;;;;;8.60;99.90;;;;;;5014907;28;20376;-76
2022/03/14 06:42:58;;;;;;;;;;;8.60;99.90;;;;;;5014087;28;19920;-76
2022/03/14 06:45:24;;;;;;;;;;;8.60;99.90;;;;;;5010741;28;20384;-77
2022/03/14 06:47:54;;;;;;;;;;;8.70;99.90;;;;;;5012049;28;19952;-77
2022/03/14 06:50:21;;;;;;;;;;;8.80;99.90;;;;;;5012567;28;19913;-77
2022/03/14 06:52:47;;;;;;;;;;;8.60;99.90;;;;;;5016928;28;19920;-77
2022/03/14 06:55:13;;;;;;;;;;;8.70;99.90;;;;;;5023903;28;19913;-79
2022/03/14 06:57:38;;;;;;;;;;;8.80;99.90;;;;;;5029049;28;19917;-77
2022/03/14 07:00:04;;;;;;;;;;;8.70;99.90;;;;;;5011655;28;19913;-79
2022/03/14 07:02:30;;;;;;;;;;;8.80;99.90;;;;;;5022577;28;19913;-76
2022/03/14 07:04:55;;;;;;;;;;;8.90;99.90;;;;;;5035411;28;19913;-77
2022/03/14 07:51:22;;;;;;;;;;;9.90;99.90;;;;;;5291361;22;19932;-80
2022/03/14 07:53:48;;;;;;;;;;;9.80;99.90;;;;;;5049068;28;19909;-81
2022/03/14 07:56:14;;;;;;;;;;;9.90;99.90;;;;;;5042775;28;19908;-76
2022/03/14 07:58:40;;;;;;;;;;;9.90;99.90;;;;;;5043656;28;19913;-76
2022/03/14 08:01:06;;;;;;;;;;;10.00;99.90;;;;;;5047644;28;20269;-75
2022/03/14 08:03:32;;;;;;;;;;;9.90;99.90;;;;;;5049023;28;19924;-76
2022/03/14 08:06:00;;;;;;;;;;;10.10;99.90;;;;;;5049664;28;19916;-77
2022/03/14 08:08:26;;;;;;;;;;;10.00;99.90;;;;;;5050902;28;20372;-76
2022/03/14 08:10:52;;;;;;;;;;;10.00;99.90;;;;;;5039694;28;20268;-76
2022/03/14 08:13:20;;;;;;;;;;;10.00;99.90;;;;;;5051790;28;19995;-76
2022/03/14 08:15:46;;;;;;;;;;;10.10;99.90;;;;;;5051031;28;19916;-77
2022/03/14 08:18:13;;;;;;;;;;;10.00;99.90;;;;;;5048665;28;19909;-76
2022/03/14 08:20:39;;;;;;;;;;;10.10;99.90;;;;;;5040099;28;19914;-76
2022/03/14 08:23:05;;;;;;;;;;;10.10;99.90;;;;;;5045496;28;20497;-76
2022/03/14 08:25:32;;;;;;;;;;;10.10;99.90;;;;;;5045393;28;19944;-76
2022/03/14 09:58:52;;;;;;;;;;;11.80;99.90;;;;;;5374919;22;19980;-78
2022/03/14 10:01:17;;;;;;;;;;;12.00;99.90;;;;;;5032403;28;19975;-79
2022/03/14 10:03:43;;;;;;;;;;;11.90;99.90;;;;;;5031406;28;19956;-79
2022/03/14 10:06:08;;;;;;;;;;;12.00;99.90;;;;;;5028898;28;19924;-78
2022/03/14 10:08:35;;;;;;;;;;;12.00;99.90;;;;;;5020156;28;19937;-78
2022/03/14 10:11:01;;;;;;;;;;;12.20;99.90;;;;;;5022614;28;19916;-78
2022/03/14 10:13:26;;;;;;;;;;;12.20;99.90;;;;;;5023673;28;19922;-78
2022/03/14 10:15:53;;;;;;;;;;;12.20;99.90;;;;;;5020387;28;19913;-78
2022/03/14 10:18:18;;;;;;;;;;;12.30;99.90;;;;;;5026281;28;19943;-78
2022/03/14 10:20:57;;;;;;;;;;;12.30;99.90;;;;;;5031585;28;19952;-78
2022/03/14 10:23:30;;;;;;;;;;;12.50;99.90;;;;;;5029990;28;20396;-78
2022/03/14 10:25:56;;;;;;;;;;;12.60;99.90;;;;;;5023218;28;19920;-78
2022/03/14 10:28:23;;;;;;;;;;;12.80;99.90;;;;;;5025823;28;19909;-78
2022/03/14 10:30:52;;;;;;;;;;;12.80;99.90;;;;;;5025197;28;19988;-79
2022/03/14 10:33:23;;;;;;;;;;;12.80;99.90;;;;;;5024042;28;19984;-78
2022/03/14 10:35:48;;;;;;;;;;;12.70;99.90;;;;;;5023721;28;21356;-78
2022/03/14 10:38:16;;;;;;;;;;;12.70;99.90;;;;;;5023164;28;19920;-78
2022/03/14 10:40:45;;;;;;;;;;;12.60;99.90;;;;;;5030818;28;19956;-78
2022/03/14 10:43:30;;;;;;;;;;;12.60;99.90;;;;;;5023751;28;20340;-77
2022/03/14 10:45:57;;;;;;;;;;;12.40;99.90;;;;;;5025843;28;19920;-78
2022/03/14 10:48:39;;;;;;;;;;;12.40;99.90;;;;;;5029716;28;19924;-78
2022/03/14 10:51:06;;;;;;;;;;;12.40;99.90;;;;;;5026797;28;20353;-78
2022/03/14 10:53:34;;;;;;;;;;;12.40;99.90;;;;;;5030849;28;20034;-78
2022/03/14 10:56:00;;;;;;;;;;;12.40;99.90;;;;;;5033017;28;19916;-78
2022/03/14 10:58:33;;;;;;;;;;;12.40;99.90;;;;;;5031476;28;20376;-78
2022/03/14 11:01:00;;;;;;;;;;;12.40;99.90;;;;;;5032181;28;19909;-78
2022/03/14 11:03:25;;;;;;;;;;;12.40;99.90;;;;;;5031885;28;20376;-77
2022/03/14 11:05:52;;;;;;;;;;;12.40;99.90;;;;;;5030681;28;19913;-77
2022/03/14 11:08:28;;;;;;;;;;;12.40;99.90;;;;;;5031547;28;19917;-78
2022/03/14 11:10:54;;;;;;;;;;;12.40;99.90;;;;;;5030954;28;20372;-78
2022/03/14 11:13:19;;;;;;;;;;;12.40;99.90;;;;;;5032044;28;19977;-78
2022/03/14 11:15:45;;;;;;;;;;;12.40;99.90;;;;;;5028955;28;20074;-77
2022/03/14 11:18:11;;;;;;;;;;;12.40;99.90;;;;;;5031119;28;19932;-77
2022/03/14 11:20:36;;;;;;;;;;;12.40;99.90;;;;;;5029630;28;19989;-78
2022/03/14 11:23:03;;;;;;;;;;;12.40;99.90;;;;;;5032461;28;19992;-77
2022/03/14 11:25:29;;;;;;;;;;;12.40;99.90;;;;;;5031014;28;19921;-78
2022/03/14 11:27:55;;;;;;;;;;;12.30;99.90;;;;;;5031999;28;19932;-77
2022/03/14 11:30:21;;;;;;;;;;;12.30;99.90;;;;;;5027736;28;19978;-78
2022/03/14 11:32:47;;;;;;;;;;;12.30;99.90;;;;;;5018497;28;20377;-78
2022/03/14 11:35:12;;;;;;;;;;;12.20;99.90;;;;;;5022662;28;19917;-77
2022/03/14 11:37:41;;;;;;;;;;;12.20;99.90;;;;;;5028587;28;19955;-77
2022/03/14 11:40:07;;;;;;;;;;;12.20;99.90;;;;;;5031604;28;19956;-77
2022/03/14 11:42:33;;;;;;;;;;;12.20;99.90;;;;;;5023739;28;19913;-78
2022/03/14 11:45:05;;;;;;;;;;;12.10;99.90;;;;;;5023762;28;19917;-77
2022/03/14 11:47:30;;;;;;;;;;;12.10;99.90;;;;;;5028277;28;20002;-77
2022/03/14 11:49:57;;;;;;;;;;;12.00;99.90;;;;;;5032162;28;19964;-78
2022/03/14 11:52:33;;;;;;;;;;;12.00;99.90;;;;;;5034484;28;19913;-78
2022/03/14 11:55:00;;;;;;;;;;;11.90;99.90;;;;;;5034047;28;19909;-78
2022/03/14 11:57:33;;;;;;;;;;;12.00;99.90;;;;;;5031949;28;19913;-78
2022/03/14 12:00:20;;;;;;;;;;;12.00;99.90;;;;;;5035305;28;19913;-77
2022/03/14 12:02:46;;;;;;;;;;;12.00;99.90;;;;;;5035117;28;20007;-78
2022/03/14 12:05:11;;;;;;;;;;;12.10;99.90;;;;;;5035069;28;20017;-78
2022/03/14 12:07:37;;;;;;;;;;;12.00;99.90;;;;;;5035508;28;19915;-78
2022/03/14 12:10:22;;;;;;;;;;;12.10;99.90;;;;;;5035043;28;20004;-78
2022/03/14 12:12:49;;;;;;;;;;;12.10;99.90;;;;;;5027419;28;19909;-78
2022/03/14 12:15:14;;;;;;;;;;;12.10;99.90;;;;;;5014227;28;19913;-78
2022/03/14 12:17:42;;;;;;;;;;;12.10;99.90;;;;;;5027890;28;19909;-78
2022/03/14 12:20:14;;;;;;;;;;;12.00;99.90;;;;;;5035265;28;19910;-77
2022/03/14 12:22:40;;;;;;;;;;;12.00;99.90;;;;;;5035589;28;19978;-77
2022/03/14 12:25:07;;;;;;;;;;;12.00;99.90;;;;;;5035018;28;19913;-79
2022/03/14 12:27:39;;;;;;;;;;;11.90;99.90;;;;;;5035385;28;20015;-79
2022/03/14 12:30:27;;;;;;;;;;;11.90;99.90;;;;;;5035362;28;20264;-78
2022/03/14 12:32:53;;;;;;;;;;;11.80;99.90;;;;;;5033778;28;19980;-78
2022/03/14 12:35:22;;;;;;;;;;;11.80;99.90;;;;;;5030145;28;19921;-78
2022/03/14 12:37:52;;;;;;;;;;;11.70;99.90;;;;;;5027002;28;19914;-79
2022/03/14 12:40:21;;;;;;;;;;;11.70;99.90;;;;;;5025334;28;19967;-78
2022/03/14 12:42:49;;;;;;;;;;;11.70;99.90;;;;;;5032308;28;19917;-79
2022/03/14 12:45:16;;;;;;;;;;;11.70;99.90;;;;;;5023526;28;19924;-79
2022/03/14 12:47:42;;;;;;;;;;;11.70;99.90;;;;;;5028616;28;19932;-79
2022/03/14 12:50:09;;;;;;;;;;;11.70;99.90;;;;;;5025412;28;20280;-80
2022/03/14 12:52:54;;;;;;;;;;;11.60;99.90;;;;;;5024444;28;21325;-79
2022/03/14 12:55:20;;;;;;;;;;;11.60;99.90;;;;;;5031088;28;19909;-79
2022/03/14 12:57:52;;;;;;;;;;;11.70;99.90;;;;;;5025084;28;19917;-79
2022/03/14 13:00:18;;;;;;;;;;;11.80;99.90;;;;;;5020509;28;20372;-80
2022/03/14 13:02:44;;;;;;;;;;;11.80;99.90;;;;;;5022058;28;19913;-80
2022/03/14 13:05:09;;;;;;;;;;;11.70;99.90;;;;;;5023352;28;19913;-79
2022/03/14 13:07:35;;;;;;;;;;;11.70;99.90;;;;;;5034206;28;20420;-79
2022/03/14 13:10:01;;;;;;;;;;;11.70;99.90;;;;;;5032471;28;20292;-79
2022/03/14 13:12:30;;;;;;;;;;;11.80;99.90;;;;;;5034181;28;19913;-79
2022/03/14 13:15:02;;;;;;;;;;;11.80;99.90;;;;;;5032052;28;19913;-79
2022/03/14 13:17:28;;;;;;;;;;;11.80;99.90;;;;;;5033076;28;19916;-78
2022/03/14 13:19:53;;;;;;;;;;;11.90;99.90;;;;;;5031727;28;19999;-79
2022/03/14 13:22:21;;;;;;;;;;;11.90;99.90;;;;;;5032851;28;19909;-79
2022/03/14 13:24:47;;;;;;;;;;;11.90;99.90;;;;;;5031698;28;19913;-79
2022/03/14 13:27:34;;;;;;;;;;;12.00;99.90;;;;;;5032922;28;19920;-79
2022/03/14 13:30:03;;;;;;;;;;;12.00;99.90;;;;;;5031856;28;19910;-79
2022/03/14 13:32:31;;;;;;;;;;;12.10;99.90;;;;;;5033349;28;20360;-79
2022/03/14 13:35:04;;;;;;;;;;;12.20;99.90;;;;;;5023152;28;20353;-79
2022/03/14 13:37:29;;;;;;;;;;;12.30;99.90;;;;;;5033258;28;19909;-79
2022/03/14 13:39:55;;;;;;;;;;;12.30;99.90;;;;;;5033411;28;20394;-79
2022/03/14 13:42:21;;;;;;;;;;;12.40;99.90;;;;;;5032078;28;19999;-79
2022/03/14 13:44:46;;;;;;;;;;;12.30;99.90;;;;;;5020965;28;20011;-79
2022/03/14 13:47:12;;;;;;;;;;;12.40;99.90;;;;;;5028336;28;19913;-79
2022/03/14 13:49:41;;;;;;;;;;;12.40;99.90;;;;;;5013993;28;19909;-80
2022/03/14 13:52:12;;;;;;;;;;;12.50;99.90;;;;;;5028586;28;19917;-79
2022/03/14 13:54:45;;;;;;;;;;;12.60;99.90;;;;;;5032867;28;19920;-79
2022/03/14 13:57:12;;;;;;;;;;;12.60;99.90;;;;;;5031175;28;19996;-79
2022/03/14 13:59:47;;;;;;;;;;;12.60;99.90;;;;;;5032811;28;19921;-79
2022/03/14 14:02:14;;;;;;;;;;;12.60;99.90;;;;;;5030170;28;19917;-79
2022/03/14 14:04:44;;;;;;;;;;;12.50;99.90;;;;;;5032036;28;19917;-79
2022/03/14 14:07:14;;;;;;;;;;;12.50;99.90;;;;;;5030398;28;19909;-78
2022/03/14 14:09:40;;;;;;;;;;;12.60;99.90;;;;;;5032615;28;19913;-79
2022/03/14 14:12:09;;;;;;;;;;;12.50;99.90;;;;;;5028989;28;19917;-79
2022/03/14 14:14:36;;;;;;;;;;;12.60;99.90;;;;;;5031236;28;19910;-79
2022/03/14 14:17:08;;;;;;;;;;;12.60;99.90;;;;;;5021290;28;19910;-79
2022/03/14 14:19:34;;;;;;;;;;;12.70;99.90;;;;;;5017969;28;19910;-79
2022/03/14 14:22:00;;;;;;;;;;;12.80;99.90;;;;;;5029520;28;19913;-79
2022/03/14 14:24:25;;;;;;;;;;;12.80;99.90;;;;;;5030269;28;19917;-78
2022/03/14 14:26:52;;;;;;;;;;;12.90;99.90;;;;;;5031431;28;19909;-78
2022/03/14 14:29:36;;;;;;;;;;;13.00;99.90;;;;;;5031661;28;20325;-80
2022/03/14 14:32:15;;;;;;;;;;;12.90;99.90;;;;;;5046311;28;19955;-82
2022/03/14 14:34:40;;;;;;;;;;;13.00;99.90;;;;;;5013220;28;19971;-80
2022/03/14 14:37:06;;;;;;;;;;;13.00;99.90;;;;;;5023870;28;19983;-80
2022/03/14 14:39:34;;;;;;;;;;;12.90;99.90;;;;;;5031243;28;19917;-79
2022/03/14 14:42:07;;;;;;;;;;;12.80;99.90;;;;;;5031112;28;20288;-79
2022/03/14 14:44:34;;;;;;;;;;;12.90;99.90;;;;;;5030813;28;20377;-80
2022/03/14 14:47:00;;;;;;;;;;;12.80;99.90;;;;;;5032088;28;20440;-79
2022/03/14 14:49:27;;;;;;;;;;;12.80;99.90;;;;;;5031112;28;19995;-79
2022/03/14 14:51:52;;;;;;;;;;;12.70;99.90;;;;;;5030554;28;19914;-79
2022/03/14 14:54:18;;;;;;;;;;;12.70;99.90;;;;;;5031023;28;19916;-79
2022/03/14 14:56:43;;;;;;;;;;;12.60;99.90;;;;;;5031135;28;20319;-73
2022/03/14 14:59:09;;;;;;;;;;;12.70;99.90;;;;;;5029063;28;19921;-79
2022/03/14 15:01:34;;;;;;;;;;;12.70;99.90;;;;;;5031747;28;19921;-79
2022/03/14 15:04:00;;;;;;;;;;;12.60;99.90;;;;;;5018700;28;20004;-79
2022/03/14 15:06:26;;;;;;;;;;;12.60;99.90;;;;;;5026731;28;19948;-79
2022/03/14 15:08:51;;;;;;;;;;;12.60;99.90;;;;;;5023615;28;20376;-80
2022/03/14 15:11:17;;;;;;;;;;;12.60;99.90;;;;;;5030825;28;19964;-79
2022/03/14 15:13:42;;;;;;;;;;;12.60;99.90;;;;;;5031039;28;19913;-79
2022/03/14 15:16:08;;;;;;;;;;;12.60;99.90;;;;;;5029762;28;20381;-79
2022/03/14 15:18:33;;;;;;;;;;;12.60;99.90;;;;;;5032137;28;20402;-79
2022/03/14 15:21:00;;;;;;;;;;;12.60;99.90;;;;;;5028878;28;19909;-79
2022/03/14 15:23:26;;;;;;;;;;;12.60;99.90;;;;;;5031647;28;20288;-79
2022/03/14 15:25:52;;;;;;;;;;;12.60;99.90;;;;;;5033882;28;19920;-79
2022/03/14 15:28:18;;;;;;;;;;;12.60;99.90;;;;;;5034783;28;19909;-79
2022/03/14 15:30:44;;;;;;;;;;;12.60;99.90;;;;;;5034175;28;20273;-79
2022/03/14 15:33:13;;;;;;;;;;;12.50;99.90;;;;;;5035504;28;19909;-79
2022/03/14 15:35:39;;;;;;;;;;;12.50;99.90;;;;;;5031655;28;19997;-79
2022/03/14 15:38:05;;;;;;;;;;;12.40;99.90;;;;;;5034936;28;20352;-80
2022/03/14 15:40:31;;;;;;;;;;;12.40;99.90;;;;;;5035452;28;20315;-80
2022/03/14 15:42:56;;;;;;;;;;;12.40;99.90;;;;;;5034280;28;19920;-79
2022/03/14 15:45:23;;;;;;;;;;;12.40;99.90;;;;;;5034045;28;20363;-80
2022/03/14 15:47:49;;;;;;;;;;;12.40;99.90;;;;;;5033679;28;19916;-79
2022/03/14 15:50:15;;;;;;;;;;;12.30;99.90;;;;;;5020763;28;20471;-79
2022/03/14 15:52:44;;;;;;;;;;;12.30;99.90;;;;;;5034147;28;19960;-79
2022/03/14 15:55:11;;;;;;;;;;;12.30;99.90;;;;;;5035071;28;19921;-79
2022/03/14 15:57:37;;;;;;;;;;;12.30;99.90;;;;;;5034084;28;19995;-79
2022/03/14 16:00:04;;;;;;;;;;;12.20;99.90;;;;;;5035200;28;20365;-79
2022/03/14 16:02:31;;;;;;;;;;;12.30;99.90;;;;;;5029818;28;19917;-80
2022/03/14 16:04:57;;;;;;;;;;;12.20;99.90;;;;;;5024580;28;19913;-79
2022/03/14 16:07:23;;;;;;;;;;;12.30;99.90;;;;;;5024872;28;19920;-80
2022/03/14 16:09:49;;;;;;;;;;;12.30;99.90;;;;;;5033006;28;19963;-74
2022/03/14 16:12:15;;;;;;;;;;;12.40;99.90;;;;;;5035108;28;19909;-80
2022/03/14 16:14:40;;;;;;;;;;;12.30;99.90;;;;;;5033916;28;19909;-81
2022/03/14 16:17:06;;;;;;;;;;;12.30;99.90;;;;;;5035239;28;20328;-79
2022/03/14 16:19:31;;;;;;;;;;;12.30;99.90;;;;;;5032634;28;20485;-80
2022/03/14 16:21:58;;;;;;;;;;;12.30;99.90;;;;;;5033659;28;20055;-79
2022/03/14 16:24:24;;;;;;;;;;;12.30;99.90;;;;;;5034114;28;20622;-80
2022/03/14 16:26:50;;;;;;;;;;;12.20;99.90;;;;;;5035296;28;19910;-79
2022/03/14 16:29:16;;;;;;;;;;;12.30;99.90;;;;;;5028420;28;19917;-79
2022/03/14 16:31:41;;;;;;;;;;;12.20;99.90;;;;;;5015063;28;20299;-79
2022/03/14 16:34:07;;;;;;;;;;;12.10;99.90;;;;;;5014928;28;19909;-78
2022/03/14 16:36:32;;;;;;;;;;;12.10;99.90;;;;;;5016177;28;19913;-79